METAR Data
IDs: Format: Raw Decoded Include TAF

Data at: 0032 UTC 25 Apr 2019

PASN 242353Z AUTO 34012KT 10SM BKN018 OVC025 00/M02 A3016 RMK AO2 SNE30 SLP212 P0000 60004 T00001022 10006 21017 51007 TSNO
PASN 242346Z AUTO 34015KT 10SM FEW009 SCT015 OVC022 00/M02 A3015 RMK AO2 SNE30 P0000 T00001017 TSNO
PASN 242319Z AUTO 34013KT 6SM -SN BR FEW009 BKN013 OVC035 01/M01 A3015 RMK AO2 P0000 T00061011 TSNO
PASN 242308Z AUTO 34014KT 2 1/2SM -SN BR FEW009 BKN013 OVC032 M01/M02 A3015 RMK AO2 VIS 1 1/2V5 P0000 T10061017 TSNO
PASN 242304Z AUTO 34013KT 4SM -SN BR SCT012 BKN018 OVC048 00/M02 A3015 RMK AO2 P0000 T00001017 TSNO
PASN 242253Z AUTO 34014KT 6SM -SN BR FEW009 SCT012 OVC048 00/M02 A3015 RMK AO2 SNE23B52 SLP210 P0000 T00001017 TSNO
PASN 242153Z AUTO 33014KT 6SM -SN BR SCT010 BKN025 M01/M02 A3014 RMK AO2 UPB2057E00B29E45SNE2057B00E29B49 SLP205 P0000 T10061017 TSNO
PASN 242130Z AUTO 33013KT 9SM UP FEW009 OVC019 M01/M02 A3013 RMK AO2 UPB2057E00B29SNE2057B00E29 P0000 T10061017 TSNO
PASN 242122Z AUTO 33015KT 2SM -SN BR FEW009 BKN017 OVC023 M01/M02 A3013 RMK AO2 UPB2057E00SNE2057B00 P0000 T10111022 TSNO
PASN 242113Z AUTO 34016KT 1 3/4SM -SN BR FEW008 BKN016 OVC023 M01/M02 A3013 RMK AO2 UPB2057E00SNE2057B00 P0000 T10111022 TSNO
PASN 242053Z AUTO 33015KT 5SM -SN BR FEW007 BKN015 OVC027 M01/M02 A3012 RMK AO2 UPB13E20SNE03B20 SLP202 P0002 60004 T10111022 51008 TSNO
PASN 242049Z AUTO 32013KT 2SM -SN BR FEW007 BKN013 OVC023 M01/M02 A3012 RMK AO2 UPB13E20SNE03B20 P0002 TSNO
PASN 242042Z AUTO 33011KT 1 1/4SM -SN BR BKN009 OVC017 M01/M02 A3012 RMK AO2 UPB13E20SNE03B20 P0001 T10111017 TSNO
PASN 242030Z AUTO 33013KT 3/4SM -SN BR FEW007 OVC014 M01/M02 A3012 RMK AO2 UPB13E20SNE03B20 P0001 T10111022 TSNO
PASN 242024Z AUTO 33014KT 2 1/2SM -SN BR FEW007 BKN016 OVC021 M01/M02 A3012 RMK AO2 VIS 1 1/4V5 UPB13E20SNE03B20 P0000 T10111022 TSNO
PASN 242003Z AUTO 33013KT 7SM FEW008 BKN012 OVC020 M01/M02 A3011 RMK AO2 SNE03 P0000 T10111022 TSNO
PASN 242000Z AUTO 33015KT 2 1/2SM -SN BR BKN012 BKN020 OVC043 M01/M02 A3011 RMK AO2 P0000 T10111022 TSNO
PASN 241953Z AUTO 32014KT 3/4SM -SN BR BKN010 BKN016 OVC024 M01/M02 A3011 RMK AO2 UPB18E19SNE18B19 SLP197 P0002 T10111022 TSNO
PASN 241943Z AUTO 33014KT 3/4SM -SN BR FEW008 OVC012 M01/M03 A3011 RMK AO2 UPB18E19SNE18B19 P0001 T10111028 TSNO
PASN 241939Z AUTO 33013KT 1 3/4SM -SN BR FEW008 BKN016 OVC024 M01/M03 A3011 RMK AO2 UPB18E19SNE18B19 P0001 T10111028 TSNO
PASN 241908Z AUTO 33012KT 4SM -SN BR FEW009 OVC016 M01/M03 A3010 RMK AO2 P0000 T10111028 TSNO
PASN 241904Z AUTO 33013KT 2 1/2SM -SN BR BKN011 OVC017 M01/M03 A3010 RMK AO2 P0000 T10111028 TSNO
PASN 241848Z AUTO 33013KT 2SM -SN BR SCT009 BKN019 OVC026 M01/M03 A3010 RMK AO2 SNB33 SLP193 P0000 T10111028 TSNO
PASN 241753Z AUTO 32011KT 9SM OVC025 M02/M04 A3009 RMK AO2 UPB14E24 SLP191 P0000 60001 I1000 I6000 T10171039 11011 21022 51014 TSNO
PASN 241653Z AUTO 33009KT 10SM BKN025 OVC030 M02/M05 A3008 RMK AO2 SNE06 SLP187 P0000 T10221050 TSNO
PASN 241553Z AUTO 35009KT 9SM -SN OVC023 M02/M05 A3006 RMK AO2 UPE27SNB50 SLP180 P0000 T10221050 TSNO
PASN 241453Z AUTO 34011KT 10SM UP BKN023 OVC028 M02/M05 A3005 RMK UPB51SNE15 SLP176 P0000 60001 T10221050 53013 TSNO VIA AUTODIAL
PASN 241408Z AUTO 34014KT 9SM -SN FEW017 BKN023 OVC030 M02/M04 A3003 RMK AO2 P0000 T10171044 TSNO
PASN 241353Z AUTO 36011KT 6SM -SN FEW015 SCT025 OVC030 M02/M04 A3003 RMK AO2 SNB49 SLP169 P0001 T10171044 TSNO
PASN 241253Z AUTO 35013KT 10SM FEW023 OVC038 M02/M04 A3002 RMK AO2 SLP166 T10171044 TSNO
PASN 241234Z AUTO 35015KT 10SM FEW018 SCT024 OVC040 M01/M04 A3002 RMK AO2 T10111039 TSNO
PASN 241153Z AUTO 35012KT 10SM SCT017 BKN022 OVC037 M01/M03 A3001 RMK SLP164 60000 70001 T10111033 10000 21011 51009 TSNO VIA AUTODIAL
PASN 241053Z AUTO 35013KT 10SM BKN017 BKN023 OVC039 M01/M03 A3001 RMK AO2 SNE10 SLP161 P0000 T10111028 TSNO
PASN 241035Z AUTO 35011KT 10SM SCT016 BKN027 OVC040 M01/M03 A3000 RMK AO2 SNE10 P0000 T10111028 TSNO
PASN 241028Z AUTO 35012KT 10SM BKN014 BKN027 OVC040 M01/M03 A3000 RMK AO2 SNE10 P0000 T10111028 TSNO
PASN 241018Z AUTO 35012KT 10SM FEW012 BKN027 OVC037 M01/M03 A3000 RMK AO2 SNE10 P0000 T10111028 TSNO
PASN 241006Z AUTO 34013KT 7SM -SN BKN012 OVC027 M01/M03 A3000 RMK AO2 P0000 T10111028 TSNO
PASN 240953Z AUTO 35011KT 8SM -SN SCT014 BKN023 OVC028 M01/M03 A2999 RMK AO2 SNB02E23B51 SLP158 P0000 T10111028 TSNO
PASN 240853Z AUTO 34012KT 10SM SCT020 BKN025 OVC037 M01/M03 A2998 RMK AO2 UPE01SNB02E37 SLP154 P0000 60000 T10061028 400111067 51017 TSNO
PASN 240753Z AUTO 33015KT 7SM UP SCT016 OVC021 M01/M03 A2998 RMK AO2 UPB53SNE0656B18E53 SLP151 P0000 T10061028 TSNO
PASN 240653Z AUTO 32012KT 4SM -SN BR SCT012 BKN016 OVC022 M01/M02 A2996 RMK AO2 UPB0557E0559B35E37SNB0559E35B37 SLP145 P0000 T10061022 TSNO
PASN 240640Z AUTO 33015G22KT 4SM -SN BR BKN014 OVC024 M01/M02 A2995 RMK AO2 UPB0557E0559B35E37SNB0559E35B37 P0000 T10061022 TSNO
PASN 240553Z AUTO 34015KT 10SM FEW016 BKN024 OVC044 00/M03 A2994 RMK AO2 SNB0458E07B19E29 SLP138 P0000 60000 T00001028 10011 20000 52012 TSNO
PASN 240536Z AUTO 33016KT 9SM FEW016 BKN026 OVC045 00/M03 A2993 RMK AO2 SNB0458E07B19E29 P0000 T00001028 TSNO
PASN 240453Z AUTO 33018KT 10SM BKN027 BKN032 OVC043 00/M03 A2992 RMK AO2 SNE0357 SLP134 P0000 T00001028 TSNO
PASN 240437Z AUTO 33014KT 10SM FEW017 BKN030 OVC048 01/M02 A2992 RMK AO2 SNE0357 P0000 T00061022 TSNO
PASN 240353Z AUTO 34017KT 7SM -SN FEW017 SCT022 OVC027 01/M02 A2991 RMK UPB0254E13SNE0254B02E03B48 SLP130 P0000 T00061022 TSNO VIA AUTODIAL
PASN 240314Z AUTO 32018KT 10SM FEW016 OVC028 01/M02 A2991 RMK AO2 UPB0254E13SNE0254B02E03 P0000 T00061022 TSNO
PASN 240303Z AUTO 33019KT 10SM UP FEW014 SCT024 OVC030 01/M02 A2990 RMK AO2 UPB0254SNE0254B02E03 P0000 T00061022 TSNO
PASN 240253Z AUTO 33019G24KT 7SM -SN FEW014 BKN023 OVC030 01/M02 A2990 RMK AO2 UPB10E12SNE10B21 SLP126 P0000 60000 T00061022 53008 TSNO
PASN 240242Z AUTO 33017G22KT 3SM -SN BR SCT014 SCT020 OVC031 01/M02 A2990 RMK AO2 UPB10E12SNE10B21 P0000 T00061017 TSNO
PASN 240239Z AUTO 34014G22KT 2 1/2SM -SN FEW016 BKN029 OVC049 01/M02 A2990 RMK AO2 VIS 1 1/4V5 UPB10E12SNE10B21 P0000 T00061022 TSNO
PASN 240217Z AUTO 32019G24KT 10SM FEW015 BKN030 BKN036 01/M02 A2989 RMK AO2 UPB10E12SNE10 P0000 T00111017 TSNO
PASN 240153Z AUTO 32016G24KT 8SM -SN FEW015 BKN022 OVC037 01/M02 A2989 RMK AO2 PK WND 33026/0121 UPE28SNB0054E04B28 SLP121 P0000 T00111017 TSNO
PASN 240143Z AUTO 32018G22KT 4SM -SN FEW015 BKN020 OVC050 01/M02 A2989 RMK AO2 PK WND 33026/0121 UPE28SNB0054E04B28 P0000 T00111017 TSNO
PASN 240135Z AUTO 33015G24KT 1 3/4SM -SN BKN018 OVC026 00/M03 A2989 RMK AO2 PK WND 33026/0121 VIS 3/4V5 UPE28SNB0054E04B28 P0000 T00001028 TSNO
PASN 240053Z AUTO 32015G24KT 9SM UP SCT018 BKN027 OVC037 01/M03 A2989 RMK AO2 PK WND 32026/2357 UPB44SNE44 SLP121 P0000 T00061028 TSNO
PASN 232353Z AUTO 32019G24KT 8SM -SN FEW021 BKN028 OVC033 00/M04 A2988 RMK AO2 SNB04 SLP118 P0000 60001 T00001039 10006 21022 51006 TSNO
PASN 232340Z AUTO 32018G21KT 7SM -SN FEW021 BKN027 OVC033 00/M04 A2988 RMK AO2 SNB04 P0000 T00001039 TSNO
PASN 232253Z AUTO 33020G24KT 9SM FEW015 SCT025 OVC034 01/M04 A2986 RMK AO2 SNB10E52 SLP114 P0000 T00061039 TSNO
PASN 232213Z AUTO 33016KT 8SM -SN SCT024 BKN029 OVC036 00/M04 A2986 RMK AO2 SNB10 P0000 T00001044 TSNO
PASN 232153Z AUTO 34014KT 10SM SCT027 SCT033 OVC043 00/M05 A2986 RMK SNB29E39 SLP112 P0000 T00001050 TSNO VIA AUTODIAL
PASN 232053Z AUTO 33017G23KT 10SM OVC037 M01/M07 A2985 RMK AO2 SNE03 SLP108 P0000 60001 T10111067 53015 TSNO
PASN 231953Z AUTO 34012KT 9SM -SN BKN036 BKN055 M01/M04 A2983 RMK AO2 SNB11E45B50 SLP102 P0001 T10111044 TSNO
PASN 231946Z AUTO 33011KT 9SM FEW024 BKN036 OVC055 00/M03 A2983 RMK AO2 SNB11E45 P0001 T00001033 TSNO
PASN 231933Z AUTO 33014KT 3SM -SN BKN024 OVC035 M02/M06 A2983 RMK AO2 SNB11 P0001 T10221056 TSNO
PASN 231853Z AUTO 33014KT 10SM SCT033 BKN042 OVC055 M01/M05 A2982 RMK AO2 SNB22E39 SLP098 P0000 T10111050 TSNO
PASN 231753Z AUTO 32013G18KT 10SM SCT039 BKN046 M02/M06 A2980 RMK AO2 SNB09E18 SLP093 P0000 60000 T10171056 11017 21061 53007 TSNO
PASN 231653Z AUTO 31015KT 10SM FEW029 BKN050 OVC075 M02/M06 A2979 RMK AO2 SNE23 SLP088 P0000 T10221056 TSNO
PASN 231627Z AUTO 32012KT 9SM FEW025 OVC075 M03/M06 A2979 RMK AO2 SNE23 P0000 T10281056 TSNO
PASN 231620Z AUTO 31013KT 2 1/2SM -SN BR SCT025 OVC075 M03/M05 A2979 RMK AO2 P0000 T10281050 TSNO
PASN 231612Z AUTO 30013G21KT 1 3/4SM -SN BKN029 OVC080 M03/M06 A2979 RMK AO2 P0000 T10281056 TSNO
PASN 231553Z AUTO 29011KT 5SM -SN FEW021 BKN036 OVC075 M03/M06 A2978 RMK AO2 SNB39 SLP086 P0000 T10281056 TSNO
PASN 231453Z AUTO 30008KT 10SM FEW065 BKN080 M04/M07 A2979 RMK SNB06E23 SLP088 P0000 60000 T10441072 58007 TSNO $ VIA AUTODIAL
PASN 231428Z AUTO 31011KT 9SM SCT029 BKN065 OVC080 M03/M07 A2979 RMK AO2 SNB06E23 P0000 T10331067 TSNO $
PASN 231416Z AUTO 27010KT 3SM -SN BKN026 OVC080 M03/M07 A2979 RMK AO2 SNB06 P0000 T10331067 TSNO $
PASN 231353Z AUTO 27015KT 10SM FEW055 OVC080 M03/M07 A2979 RMK AO2 SNB05E17 SLP090 P0000 T10331072 TSNO $
PASN 231253Z AUTO 28008KT 10SM BKN037 BKN047 OVC075 M04/M08 A2980 RMK AO2 SLP093 T10391083 TSNO $